createdAt,value
2022-12-29T00:02:08.535Z,1.73
2022-12-29T00:04:40.107Z,1.70
2022-12-29T00:07:12.155Z,1.70
2022-12-29T00:09:43.579Z,1.60
2022-12-29T00:12:14.987Z,1.30
2022-12-29T00:14:46.460Z,1.63
2022-12-29T00:17:17.894Z,1.50
2022-12-29T00:19:49.621Z,1.30
2022-12-29T00:22:21.045Z,1.52
2022-12-29T00:24:52.496Z,1.50
2022-12-29T00:27:24.139Z,1.40
2022-12-29T00:29:55.919Z,1.67
2022-12-29T00:32:27.336Z,1.25
2022-12-29T00:34:58.782Z,1.50
2022-12-29T00:37:30.235Z,1.27
2022-12-29T00:40:01.693Z,1.40
2022-12-29T00:42:33.094Z,1.50
2022-12-29T00:45:04.899Z,1.90
2022-12-29T00:47:36.286Z,1.33
2022-12-29T00:50:08.177Z,1.35
2022-12-29T00:52:39.591Z,1.33
2022-12-29T00:55:11.075Z,1.70
2022-12-29T00:57:42.560Z,1.30
2022-12-29T01:00:14.492Z,1.30
2022-12-29T01:02:46.019Z,1.30
2022-12-29T01:05:17.482Z,1.30
2022-12-29T01:07:49.777Z,1.40
2022-12-29T01:10:21.246Z,1.30
2022-12-29T01:12:52.656Z,1.20
2022-12-29T01:15:24.109Z,1.00
2022-12-29T01:17:55.525Z,1.30
2022-12-29T01:20:27.079Z,1.02
2022-12-29T01:22:58.595Z,1.20
2022-12-29T01:25:30.012Z,1.00
2022-12-29T01:28:01.490Z,1.50
2022-12-29T01:30:33.566Z,1.30
2022-12-29T01:33:04.949Z,1.58
2022-12-29T01:35:36.362Z,1.38
2022-12-29T01:38:07.755Z,1.30
2022-12-29T01:40:47.020Z,1.17
2022-12-29T01:43:18.466Z,1.20
2022-12-29T01:45:52.688Z,1.35
2022-12-29T01:48:24.422Z,1.63
2022-12-29T01:50:56.311Z,1.30
2022-12-29T01:53:31.230Z,1.55
2022-12-29T01:56:07.699Z,1.60
2022-12-29T01:58:42.750Z,1.77
2022-12-29T02:01:15.856Z,1.52
2022-12-29T02:03:49.096Z,1.98
2022-12-29T02:06:38.489Z,1.95
2022-12-29T02:09:09.988Z,2.40
2022-12-29T02:14:21.951Z,1.90
2022-12-29T02:17:12.184Z,1.60
2022-12-29T02:20:19.488Z,1.70
2022-12-29T02:23:02.006Z,1.80
2022-12-29T02:26:02.484Z,1.63
2022-12-29T02:28:58.802Z,2.10
2022-12-29T02:31:40.965Z,2.05
2022-12-29T02:34:23.301Z,2.10
2022-12-29T02:37:18.495Z,1.77
2022-12-29T02:40:08.341Z,1.90
2022-12-29T02:42:56.721Z,1.90
2022-12-29T02:45:56.283Z,1.60
2022-12-29T02:48:38.449Z,2.13
2022-12-29T02:51:19.810Z,2.50
2022-12-29T02:53:53.541Z,2.47
2022-12-29T02:56:25.419Z,3.30
2022-12-29T02:58:56.899Z,3.00
2022-12-29T03:02:04.566Z,3.50
2022-12-29T03:04:44.855Z,3.30
2022-12-29T03:07:44.359Z,3.72
2022-12-29T03:10:39.423Z,3.67
2022-12-29T03:13:19.707Z,3.47
2022-12-29T03:16:06.348Z,4.38
2022-12-29T03:18:46.689Z,3.70
2022-12-29T03:21:30.328Z,3.28
2022-12-29T03:24:01.987Z,3.97
2022-12-29T03:26:33.441Z,3.17
2022-12-29T03:29:08.517Z,3.25
2022-12-29T03:31:42.043Z,3.70
2022-12-29T03:34:16.416Z,3.25
2022-12-29T03:36:59.646Z,3.40
2022-12-29T03:39:31.886Z,3.55
2022-12-29T03:42:08.824Z,3.58
2022-12-29T03:44:43.046Z,3.30
2022-12-29T03:47:15.858Z,3.03
2022-12-29T03:49:47.806Z,2.90
2022-12-29T03:52:19.653Z,2.78
2022-12-29T03:54:51.140Z,2.65
2022-12-29T03:57:22.707Z,2.95
2022-12-29T03:59:54.112Z,3.38
2022-12-29T04:02:25.769Z,3.35
2022-12-29T04:04:57.341Z,3.00
2022-12-29T04:07:28.772Z,3.30
2022-12-29T04:10:00.271Z,3.47
2022-12-29T04:12:31.813Z,3.63
2022-12-29T04:15:03.534Z,4.07
2022-12-29T04:17:35.037Z,3.88
2022-12-29T04:20:06.947Z,4.70
2022-12-29T04:22:38.949Z,4.43
2022-12-29T04:25:10.616Z,4.55
2022-12-29T04:27:42.039Z,4.47
2022-12-29T04:30:13.483Z,4.13
2022-12-29T04:32:45.490Z,4.13
2022-12-29T04:35:16.915Z,4.63
2022-12-29T04:37:49.852Z,3.50
2022-12-29T04:40:21.297Z,3.97
2022-12-29T04:42:52.769Z,4.33
2022-12-29T04:45:24.367Z,3.50
2022-12-29T04:47:55.823Z,3.70
2022-12-29T04:50:27.282Z,3.97
2022-12-29T04:52:58.688Z,3.67
2022-12-29T04:55:30.076Z,3.90
2022-12-29T04:58:01.726Z,3.78
2022-12-29T05:00:33.259Z,3.47
2022-12-29T05:03:04.796Z,3.80
2022-12-29T05:05:36.353Z,3.67
2022-12-29T05:08:07.780Z,4.25
2022-12-29T05:10:39.399Z,4.00
2022-12-29T05:13:10.831Z,3.60
2022-12-29T05:15:42.339Z,3.67
2022-12-29T05:18:13.827Z,3.50
2022-12-29T05:20:46.211Z,3.60
2022-12-29T05:23:17.670Z,3.50
2022-12-29T05:25:50.196Z,3.83
2022-12-29T05:28:21.579Z,4.30
2022-12-29T05:30:53.032Z,3.83
2022-12-29T05:33:24.494Z,3.60
2022-12-29T05:35:55.936Z,4.90
2022-12-29T05:38:27.387Z,4.72
2022-12-29T05:40:58.826Z,4.40
2022-12-29T05:43:30.312Z,4.72
2022-12-29T05:46:02.709Z,5.10
2022-12-29T05:48:37.884Z,4.05
2022-12-29T05:51:09.815Z,4.80
2022-12-29T05:53:41.244Z,4.50
2022-12-29T05:56:12.657Z,4.68
2022-12-29T05:58:44.172Z,4.20
2022-12-29T06:01:15.636Z,4.70
2022-12-29T06:03:48.474Z,4.20
2022-12-29T06:06:20.308Z,4.67
2022-12-29T06:08:51.820Z,4.80
2022-12-29T06:11:23.263Z,4.37
2022-12-29T06:13:54.759Z,4.30
2022-12-29T06:16:26.281Z,4.85
2022-12-29T06:18:57.755Z,4.50
2022-12-29T06:21:29.192Z,5.75
2022-12-29T06:24:00.597Z,5.10
2022-12-29T06:26:32.066Z,5.05
2022-12-29T06:29:03.551Z,4.80
2022-12-29T06:31:35.119Z,5.43
2022-12-29T06:34:08.456Z,5.40
2022-12-29T06:36:40.239Z,5.82
2022-12-29T06:39:11.890Z,6.63
2022-12-29T06:41:43.376Z,5.78
2022-12-29T06:44:14.837Z,6.53
2022-12-29T06:46:46.256Z,6.53
2022-12-29T06:49:17.910Z,6.35
2022-12-29T06:51:49.346Z,6.28
2022-12-29T06:54:20.773Z,6.50
2022-12-29T06:56:52.173Z,6.05
2022-12-29T06:59:23.871Z,6.43
2022-12-29T07:01:55.477Z,5.82
2022-12-29T07:04:27.145Z,5.40
2022-12-29T07:06:58.551Z,6.03
2022-12-29T07:09:30.060Z,5.60
2022-12-29T07:12:01.703Z,5.93
2022-12-29T07:14:37.407Z,4.93
2022-12-29T07:17:13.880Z,5.03
2022-12-29T07:19:45.549Z,4.97
2022-12-29T07:22:17.015Z,5.05
2022-12-29T07:24:48.778Z,4.20
2022-12-29T07:27:20.227Z,4.35
2022-12-29T07:29:51.698Z,5.07
2022-12-29T07:32:23.103Z,5.00
2022-12-29T07:34:54.511Z,5.05
2022-12-29T07:37:26.003Z,4.85
2022-12-29T07:39:57.456Z,4.47
2022-12-29T07:42:28.955Z,5.05
2022-12-29T07:45:00.408Z,5.22
2022-12-29T07:47:31.890Z,5.30
2022-12-29T07:50:03.683Z,5.25
2022-12-29T07:52:35.127Z,5.55
2022-12-29T07:55:07.231Z,5.25
2022-12-29T07:57:38.618Z,5.63
2022-12-29T08:00:10.901Z,5.20
2022-12-29T08:02:42.331Z,5.70
2022-12-29T08:05:13.806Z,5.60
2022-12-29T08:07:45.913Z,5.53
2022-12-29T08:10:17.681Z,5.32
2022-12-29T08:12:49.128Z,5.72
2022-12-29T08:15:20.559Z,6.63
2022-12-29T08:17:51.939Z,5.18
2022-12-29T08:20:23.371Z,6.00
2022-12-29T08:22:55.434Z,5.95
2022-12-29T08:25:26.883Z,6.20
2022-12-29T08:27:58.266Z,5.30
2022-12-29T08:30:29.667Z,5.45
2022-12-29T08:33:01.110Z,5.43
2022-12-29T08:35:32.554Z,5.45
2022-12-29T08:38:03.960Z,5.43
2022-12-29T08:40:35.416Z,5.60
2022-12-29T08:43:07.443Z,5.30
2022-12-29T08:45:40.175Z,5.15
2022-12-29T08:48:11.673Z,6.03
2022-12-29T08:50:44.696Z,6.38
2022-12-29T08:53:16.290Z,6.20
2022-12-29T08:55:48.822Z,5.18
2022-12-29T08:58:20.221Z,4.45
2022-12-29T09:00:56.783Z,6.22
2022-12-29T09:04:04.503Z,6.13
2022-12-29T09:06:19.807Z,5.47
2022-12-29T09:08:51.227Z,6.47
2022-12-29T09:11:25.216Z,5.40
2022-12-29T09:13:56.676Z,5.77
2022-12-29T09:16:28.365Z,5.85
2022-12-29T09:19:00.203Z,5.53
2022-12-29T09:21:32.221Z,5.93
2022-12-29T09:24:04.039Z,6.38
2022-12-29T09:26:35.491Z,6.47
2022-12-29T09:29:06.963Z,6.60
2022-12-29T09:31:38.547Z,6.60
2022-12-29T09:34:10.023Z,8.65
2022-12-29T09:36:41.447Z,7.93
2022-12-29T09:39:13.805Z,8.60
2022-12-29T09:42:07.470Z,7.68
2022-12-29T09:45:22.582Z,7.70
2022-12-29T09:47:54.148Z,7.95
2022-12-29T09:50:31.575Z,9.32
2022-12-29T09:53:16.552Z,10.20
2022-12-29T09:55:54.504Z,10.47
2022-12-29T09:58:28.967Z,10.05
2022-12-29T10:01:28.389Z,10.40
2022-12-29T10:04:01.071Z,11.35
2022-12-29T10:07:03.724Z,10.95
2022-12-29T10:09:44.763Z,11.55
2022-12-29T10:12:32.689Z,10.63
2022-12-29T10:15:14.805Z,10.35
2022-12-29T10:17:53.397Z,9.98
2022-12-29T10:20:27.832Z,10.20
2022-12-29T10:23:25.860Z,10.00
2022-12-29T10:25:59.511Z,8.67
2022-12-29T10:28:45.619Z,9.15
2022-12-29T10:31:21.540Z,8.23
2022-12-29T10:34:00.340Z,8.02
2022-12-29T10:36:39.257Z,8.13
2022-12-29T10:39:23.225Z,8.40
2022-12-29T10:42:06.273Z,8.38
2022-12-29T10:44:37.932Z,8.50
2022-12-29T10:47:17.991Z,8.80
2022-12-29T10:49:50.045Z,8.20
2022-12-29T10:52:24.459Z,8.27
2022-12-29T10:55:37.391Z,7.45
2022-12-29T10:58:13.511Z,7.53
2022-12-29T11:00:52.518Z,6.95
2022-12-29T11:03:30.169Z,6.72
2022-12-29T11:06:26.336Z,6.70
2022-12-29T11:08:58.928Z,7.65
2022-12-29T11:11:39.204Z,7.63
2022-12-29T11:14:18.839Z,6.35
2022-12-29T11:17:04.374Z,6.68
2022-12-29T11:19:40.707Z,7.00
2022-12-29T11:22:26.442Z,5.38
2022-12-29T11:25:11.962Z,5.30
2022-12-29T11:28:16.008Z,4.93
2022-12-29T11:31:00.253Z,5.18
2022-12-29T11:33:33.239Z,5.27
2022-12-29T11:36:13.100Z,4.93
2022-12-29T11:38:55.198Z,4.68
2022-12-29T11:41:30.646Z,5.55
2022-12-29T11:44:06.336Z,6.07
2022-12-29T11:46:39.109Z,4.93
2022-12-29T11:49:19.499Z,4.90
2022-12-29T11:51:53.945Z,3.72
2022-12-29T11:54:32.790Z,3.80
2022-12-29T11:57:17.359Z,4.13
2022-12-29T11:59:54.360Z,3.40
2022-12-29T12:02:54.506Z,3.10
2022-12-29T12:05:36.366Z,3.58
2022-12-29T12:08:21.011Z,3.20
2022-12-29T12:11:09.541Z,3.58
2022-12-29T12:14:12.949Z,3.70
2022-12-29T12:16:51.595Z,4.60
2022-12-29T12:19:51.502Z,6.70
2022-12-29T12:22:31.872Z,6.90
2022-12-29T12:25:12.003Z,7.15
2022-12-29T12:27:58.436Z,6.70
2022-12-29T12:30:39.378Z,6.57
2022-12-29T12:33:23.119Z,6.70
2022-12-29T12:36:22.632Z,6.07
2022-12-29T12:39:20.741Z,5.72
2022-12-29T12:42:07.075Z,5.63
2022-12-29T12:44:57.009Z,5.22
2022-12-29T12:48:08.348Z,5.15
2022-12-29T12:50:55.118Z,5.75
2022-12-29T12:53:31.497Z,4.60
2022-12-29T12:56:20.475Z,5.00
2022-12-29T12:59:24.419Z,4.60
2022-12-29T13:02:16.696Z,5.20
2022-12-29T13:05:06.514Z,5.53
2022-12-29T13:07:46.335Z,6.18
2022-12-29T13:10:33.079Z,5.20
2022-12-29T13:13:13.733Z,5.80
2022-12-29T13:16:02.340Z,5.60
2022-12-29T13:18:49.542Z,5.17
2022-12-29T13:21:26.946Z,4.57
2022-12-29T13:24:11.345Z,5.65
2022-12-29T13:27:05.688Z,5.00
2022-12-29T13:30:04.720Z,6.20
2022-12-29T13:32:51.098Z,5.33
2022-12-29T13:35:53.331Z,7.05
2022-12-29T13:38:34.772Z,6.15
2022-12-29T13:41:11.528Z,5.72
2022-12-29T13:43:46.535Z,4.78
2022-12-29T13:46:32.844Z,4.60
2022-12-29T13:49:16.314Z,4.03
2022-12-29T13:51:54.751Z,3.55
2022-12-29T13:54:52.635Z,3.20
2022-12-29T13:57:29.987Z,3.40
2022-12-29T14:00:20.243Z,3.45
2022-12-29T14:03:13.758Z,3.50
2022-12-29T14:06:03.183Z,3.83
2022-12-29T14:08:35.836Z,4.72
2022-12-29T14:11:13.116Z,4.05
2022-12-29T14:13:47.104Z,3.83
2022-12-29T14:16:31.371Z,3.92
2022-12-29T14:19:20.448Z,4.30
2022-12-29T14:22:02.632Z,4.13
2022-12-29T14:24:34.061Z,4.07
2022-12-29T14:27:11.270Z,4.97
2022-12-29T14:29:47.286Z,4.10
2022-12-29T14:32:27.774Z,4.40
2022-12-29T14:35:20.855Z,4.30
2022-12-29T14:38:16.174Z,4.40
2022-12-29T14:40:49.144Z,4.70
2022-12-29T14:43:29.524Z,4.80
2022-12-29T14:46:03.081Z,5.47
2022-12-29T14:48:39.349Z,5.22
2022-12-29T14:51:30.105Z,5.70
2022-12-29T14:54:08.782Z,4.75
2022-12-29T14:56:40.920Z,4.80
2022-12-29T14:59:12.433Z,4.78
2022-12-29T15:01:53.254Z,4.47
2022-12-29T15:04:36.399Z,4.43
2022-12-29T15:07:12.370Z,5.38
2022-12-29T15:09:48.533Z,4.35
2022-12-29T15:12:38.465Z,4.18
2022-12-29T15:15:27.014Z,5.20
2022-12-29T15:18:12.748Z,4.80
2022-12-29T15:20:44.442Z,4.70
2022-12-29T15:23:17.788Z,4.93
2022-12-29T15:26:00.296Z,4.85
2022-12-29T15:28:47.861Z,4.90
2022-12-29T15:31:30.181Z,4.47
2022-12-29T15:34:13.173Z,4.88
2022-12-29T15:36:44.715Z,5.40
2022-12-29T15:39:29.854Z,5.95
2022-12-29T15:42:11.477Z,5.90
2022-12-29T15:44:45.224Z,5.63
2022-12-29T15:47:27.988Z,5.15
2022-12-29T15:50:10.225Z,5.40
2022-12-29T15:52:41.866Z,5.30
2022-12-29T15:55:25.850Z,4.80
2022-12-29T15:57:59.509Z,5.30
2022-12-29T16:00:32.487Z,5.32
2022-12-29T16:03:07.440Z,5.00
2022-12-29T16:05:40.602Z,5.68
2022-12-29T16:08:34.818Z,5.38
2022-12-29T16:11:37.236Z,4.88
2022-12-29T16:14:21.429Z,5.07
2022-12-29T16:16:52.947Z,4.60
2022-12-29T16:19:37.406Z,4.47
2022-12-29T16:22:18.503Z,4.43
2022-12-29T16:24:49.963Z,4.68
2022-12-29T16:27:41.339Z,4.50
2022-12-29T16:30:33.219Z,5.77
2022-12-29T16:33:06.601Z,4.47
2022-12-29T16:35:44.053Z,5.00
2022-12-29T16:38:23.436Z,4.68
2022-12-29T16:40:56.192Z,4.73
2022-12-29T16:43:29.874Z,4.90
2022-12-29T16:46:01.278Z,4.88
2022-12-29T16:48:36.146Z,4.47
2022-12-29T16:51:16.979Z,4.88
2022-12-29T16:53:54.441Z,5.28
2022-12-29T16:56:29.759Z,4.78
2022-12-29T16:59:03.037Z,4.78
2022-12-29T17:01:40.948Z,5.13
2022-12-29T17:04:14.610Z,5.07
2022-12-29T17:06:46.126Z,5.15
2022-12-29T17:09:23.673Z,4.78
2022-12-29T17:12:05.022Z,5.35
2022-12-29T17:14:53.528Z,4.70
2022-12-29T17:17:35.677Z,4.38
2022-12-29T17:20:38.008Z,4.20
2022-12-29T17:23:18.624Z,4.40
2022-12-29T17:25:55.220Z,4.63
2022-12-29T17:28:29.780Z,4.22
2022-12-29T17:31:03.393Z,5.10
2022-12-29T17:33:39.819Z,5.47
2022-12-29T17:36:11.913Z,4.75
2022-12-29T17:38:43.529Z,5.07
2022-12-29T17:41:14.971Z,4.90
2022-12-29T17:43:46.491Z,5.25
2022-12-29T17:46:17.933Z,4.78
2022-12-29T17:48:53.499Z,5.00
2022-12-29T17:51:25.615Z,6.10
2022-12-29T17:53:57.062Z,5.90
2022-12-29T17:56:28.453Z,5.78
2022-12-29T17:58:59.900Z,6.70
2022-12-29T18:01:35.877Z,6.85
2022-12-29T18:04:15.072Z,6.40
2022-12-29T18:06:47.316Z,6.97
2022-12-29T18:09:18.734Z,7.10
2022-12-29T18:11:50.161Z,6.85
2022-12-29T18:14:21.609Z,6.15
2022-12-29T18:16:53.076Z,7.00
2022-12-29T18:19:24.468Z,7.00
2022-12-29T18:21:55.873Z,6.60
2022-12-29T18:24:27.266Z,6.15
2022-12-29T18:26:58.720Z,5.82
2022-12-29T18:29:30.112Z,6.35
2022-12-29T18:32:01.586Z,5.57
2022-12-29T18:34:33.011Z,7.10
2022-12-29T18:37:04.472Z,6.80
2022-12-29T18:39:36.620Z,6.57
2022-12-29T18:42:09.636Z,6.18
2022-12-29T18:44:41.051Z,6.28
2022-12-29T18:47:12.562Z,6.35
2022-12-29T18:49:44.051Z,6.65
2022-12-29T18:52:15.442Z,6.28
2022-12-29T18:54:46.874Z,6.43
2022-12-29T18:57:18.254Z,6.45
2022-12-29T18:59:49.705Z,6.50
2022-12-29T19:02:21.149Z,6.30
2022-12-29T19:04:53.636Z,6.18
2022-12-29T19:07:26.488Z,6.18
2022-12-29T19:09:57.923Z,6.60
2022-12-29T19:12:29.340Z,6.43
2022-12-29T19:15:04.582Z,6.40
2022-12-29T19:17:35.986Z,7.53
2022-12-29T19:20:16.163Z,7.60
2022-12-29T19:22:47.577Z,6.30
2022-12-29T19:25:18.992Z,6.50
2022-12-29T19:27:51.514Z,6.20
2022-12-29T19:30:23.274Z,7.25
2022-12-29T19:32:56.569Z,6.30
2022-12-29T19:35:29.750Z,6.78
2022-12-29T19:38:01.214Z,6.47
2022-12-29T19:40:33.016Z,6.90
2022-12-29T19:43:04.428Z,7.55
2022-12-29T19:45:38.803Z,6.68
2022-12-29T19:48:18.708Z,7.85
2022-12-29T19:50:50.169Z,6.95
2022-12-29T19:53:21.567Z,7.25
2022-12-29T19:55:53.040Z,6.40
2022-12-29T19:58:24.445Z,7.30
2022-12-29T20:00:55.934Z,7.65
2022-12-29T20:03:27.412Z,7.67
2022-12-29T20:05:58.974Z,7.55
2022-12-29T20:08:30.526Z,6.63
2022-12-29T20:11:06.821Z,6.35
2022-12-29T20:13:38.787Z,7.22
2022-12-29T20:16:13.627Z,7.15
2022-12-29T20:18:45.335Z,9.00
2022-12-29T20:21:20.337Z,7.90
2022-12-29T20:23:53.929Z,7.93
2022-12-29T20:26:28.341Z,7.50
2022-12-29T20:28:59.797Z,7.68
2022-12-29T20:31:38.574Z,7.68
2022-12-29T20:34:10.141Z,6.72
2022-12-29T20:36:44.956Z,7.20
2022-12-29T20:39:19.516Z,8.15
2022-12-29T20:41:50.907Z,7.22
2022-12-29T20:44:22.339Z,7.05
2022-12-29T20:46:53.842Z,7.45
2022-12-29T20:49:25.678Z,7.57
2022-12-29T20:52:06.200Z,7.25
2022-12-29T20:54:39.765Z,6.80
2022-12-29T20:57:11.543Z,7.70
2022-12-29T20:59:43.033Z,7.65
2022-12-29T21:02:22.586Z,6.75
2022-12-29T21:07:45.603Z,7.05
2022-12-29T21:10:17.696Z,6.28
2022-12-29T21:12:49.343Z,6.47
2022-12-29T21:15:20.940Z,6.10
2022-12-29T21:17:52.344Z,6.22
2022-12-29T21:20:24.120Z,6.13
2022-12-29T21:22:56.741Z,6.00
2022-12-29T21:25:30.128Z,5.90
2022-12-29T21:28:01.566Z,6.22
2022-12-29T21:30:33.739Z,7.32
2022-12-29T21:33:05.445Z,6.72
2022-12-29T21:35:38.518Z,7.50
2022-12-29T21:38:09.986Z,7.90
2022-12-29T21:40:41.436Z,7.03
2022-12-29T21:43:12.855Z,6.80
2022-12-29T21:45:50.038Z,8.05
2022-12-29T21:48:21.535Z,7.30
2022-12-29T21:50:55.838Z,7.00
2022-12-29T21:53:29.068Z,6.97
2022-12-29T21:56:00.476Z,6.65
2022-12-29T21:58:32.104Z,7.20
2022-12-29T22:01:03.681Z,6.40
2022-12-29T22:03:38.425Z,6.47
2022-12-29T22:06:11.341Z,5.68
2022-12-29T22:08:42.863Z,5.68
2022-12-29T22:11:14.305Z,5.60
2022-12-29T22:13:45.768Z,5.47
2022-12-29T22:16:17.196Z,5.55
2022-12-29T22:18:48.676Z,4.93
2022-12-29T22:21:20.227Z,5.10
2022-12-29T22:23:51.815Z,5.43
2022-12-29T22:26:23.283Z,4.90
2022-12-29T22:28:54.776Z,5.10
2022-12-29T22:31:29.362Z,5.43
2022-12-29T22:34:04.257Z,6.10
2022-12-29T22:36:35.652Z,5.87
2022-12-29T22:39:07.111Z,5.63
2022-12-29T22:41:38.556Z,6.53
2022-12-29T22:44:10.020Z,5.57
2022-12-29T22:46:41.501Z,6.65
2022-12-29T22:49:13.032Z,6.25
2022-12-29T22:51:44.519Z,5.70
2022-12-29T22:54:15.955Z,6.88
2022-12-29T22:56:47.584Z,6.60
2022-12-29T22:59:19.031Z,6.35
2022-12-29T23:01:50.550Z,6.43
2022-12-29T23:07:14.129Z,6.55
2022-12-29T23:09:45.560Z,5.82
2022-12-29T23:12:16.966Z,6.28
2022-12-29T23:14:48.400Z,5.25
2022-12-29T23:17:19.787Z,5.68
2022-12-29T23:19:51.421Z,5.43
2022-12-29T23:22:22.970Z,5.20
2022-12-29T23:24:54.405Z,6.22
2022-12-29T23:27:25.845Z,5.32
2022-12-29T23:29:57.262Z,4.97
2022-12-29T23:32:28.677Z,4.83
2022-12-29T23:35:00.070Z,6.25
2022-12-29T23:37:31.541Z,5.40
2022-12-29T23:40:03.555Z,5.82
2022-12-29T23:42:34.933Z,7.18
2022-12-29T23:45:07.065Z,6.30
2022-12-29T23:47:38.509Z,5.97
2022-12-29T23:50:09.936Z,5.97
2022-12-29T23:52:41.344Z,5.75
2022-12-29T23:55:12.808Z,5.17
2022-12-29T23:57:44.206Z,6.20
